createdAt,value
2017-09-27T00:02:04.883Z,24.00
2017-09-27T00:04:33.502Z,25.97
2017-09-27T00:07:02.165Z,25.23
2017-09-27T00:09:30.784Z,24.30
2017-09-27T00:11:59.495Z,26.20
2017-09-27T00:14:28.149Z,25.60
2017-09-27T00:16:56.805Z,23.07
2017-09-27T00:19:25.480Z,23.50
2017-09-27T00:21:54.135Z,23.80
2017-09-27T00:24:22.826Z,23.57
2017-09-27T00:26:51.462Z,24.30
2017-09-27T00:29:20.128Z,24.27
2017-09-27T00:31:48.792Z,23.60
2017-09-27T00:34:17.414Z,23.40
2017-09-27T00:36:46.104Z,23.37
2017-09-27T00:39:14.771Z,24.87
2017-09-27T00:41:43.397Z,25.00
2017-09-27T00:44:11.925Z,24.63
2017-09-27T00:46:40.422Z,23.57
2017-09-27T00:49:09.115Z,23.17
2017-09-27T00:51:37.749Z,24.47
2017-09-27T00:54:06.378Z,23.87
2017-09-27T00:56:34.748Z,24.03
2017-09-27T00:59:03.098Z,23.47
2017-09-27T01:01:31.774Z,23.47
2017-09-27T01:04:00.402Z,24.03
2017-09-27T01:06:29.033Z,23.57
2017-09-27T01:08:57.701Z,25.13
2017-09-27T01:11:26.026Z,25.47
2017-09-27T01:13:54.691Z,28.10
2017-09-27T01:16:23.351Z,25.70
2017-09-27T01:18:51.978Z,26.13
2017-09-27T01:21:20.334Z,26.17
2017-09-27T01:23:48.652Z,25.50
2017-09-27T01:26:17.020Z,25.27
2017-09-27T01:28:45.678Z,27.13
2017-09-27T01:31:14.317Z,26.77
2017-09-27T01:33:43.038Z,29.07
2017-09-27T01:36:11.204Z,27.30
2017-09-27T01:38:39.523Z,28.30
2017-09-27T01:41:08.236Z,26.33
2017-09-27T01:43:36.533Z,27.43
2017-09-27T01:46:04.879Z,26.27
2017-09-27T01:48:37.258Z,28.33
2017-09-27T01:51:05.969Z,28.30
2017-09-27T01:53:34.635Z,25.40
2017-09-27T01:56:02.982Z,27.20
2017-09-27T01:58:35.433Z,26.20
2017-09-27T02:01:04.130Z,26.63
2017-09-27T02:03:32.745Z,26.27
2017-09-27T02:06:01.381Z,26.60
2017-09-27T02:08:30.082Z,25.17
2017-09-27T02:10:58.714Z,27.17
2017-09-27T02:13:27.390Z,27.77
2017-09-27T02:16:00.550Z,26.30
2017-09-27T02:18:29.212Z,28.20
2017-09-27T02:20:57.841Z,27.47
2017-09-27T02:23:26.461Z,28.07
2017-09-27T02:25:55.130Z,27.30
2017-09-27T02:28:23.785Z,27.43
2017-09-27T02:30:52.453Z,25.97
2017-09-27T02:33:21.091Z,27.37
2017-09-27T02:35:49.741Z,28.30
2017-09-27T02:38:18.433Z,28.07
2017-09-27T02:40:47.097Z,30.70
2017-09-27T02:43:15.730Z,27.70
2017-09-27T02:45:44.404Z,25.40
2017-09-27T02:48:13.042Z,28.60
2017-09-27T02:50:41.653Z,26.60
2017-09-27T02:53:10.314Z,27.93
2017-09-27T02:55:38.965Z,27.50
2017-09-27T02:58:07.666Z,27.57
2017-09-27T03:00:36.355Z,27.80
2017-09-27T03:03:04.978Z,27.07
2017-09-27T03:05:33.657Z,26.87
2017-09-27T03:08:02.278Z,27.00
2017-09-27T03:10:31.058Z,26.13
2017-09-27T03:12:59.722Z,24.93
2017-09-27T03:15:28.333Z,26.23
2017-09-27T03:17:56.994Z,28.70
2017-09-27T03:20:25.615Z,25.70
2017-09-27T03:22:54.249Z,27.00
2017-09-27T03:25:22.765Z,27.37
2017-09-27T03:27:51.286Z,26.63
2017-09-27T03:30:19.908Z,26.00
2017-09-27T03:32:48.593Z,28.00
2017-09-27T03:35:16.989Z,26.03
2017-09-27T03:37:45.597Z,25.90
2017-09-27T03:40:14.253Z,27.70
2017-09-27T03:42:42.869Z,25.03
2017-09-27T03:45:11.583Z,26.90
2017-09-27T03:47:40.201Z,26.53
2017-09-27T03:50:08.814Z,26.53
2017-09-27T03:52:37.533Z,27.57
2017-09-27T03:55:06.181Z,27.57
2017-09-27T03:57:34.882Z,25.73
2017-09-27T04:00:03.382Z,28.87
2017-09-27T04:02:32.078Z,24.57
2017-09-27T04:05:00.730Z,27.63
2017-09-27T04:07:29.349Z,28.20
2017-09-27T04:09:58.009Z,27.50
2017-09-27T04:12:26.679Z,28.20
2017-09-27T04:14:55.302Z,27.00
2017-09-27T04:17:23.933Z,26.90
2017-09-27T04:19:52.580Z,29.23
2017-09-27T04:22:21.198Z,27.00
2017-09-27T04:24:49.852Z,28.30
2017-09-27T04:27:18.560Z,28.63
2017-09-27T04:29:48.731Z,25.63
2017-09-27T04:32:17.405Z,28.83
2017-09-27T04:34:46.016Z,27.50
2017-09-27T04:37:15.865Z,25.87
2017-09-27T04:39:45.629Z,31.07
2017-09-27T04:42:16.326Z,27.97
2017-09-27T04:44:45.006Z,29.17
2017-09-27T04:47:13.667Z,30.27
2017-09-27T04:49:42.314Z,28.60
2017-09-27T04:52:10.927Z,30.43
2017-09-27T04:54:39.597Z,31.20
2017-09-27T04:57:08.219Z,30.37
2017-09-27T04:59:36.887Z,28.50
2017-09-27T05:02:05.369Z,29.33
2017-09-27T05:04:34.030Z,29.70
2017-09-27T05:07:02.696Z,30.90
2017-09-27T05:09:31.383Z,29.30
2017-09-27T05:12:00.039Z,29.47
2017-09-27T05:14:28.701Z,30.90
2017-09-27T05:16:57.357Z,30.43
2017-09-27T05:19:25.995Z,28.90
2017-09-27T05:21:54.618Z,30.40
2017-09-27T05:24:23.327Z,31.20
2017-09-27T05:26:52.004Z,29.37
2017-09-27T05:29:20.613Z,32.20
2017-09-27T05:31:49.232Z,31.37
2017-09-27T05:34:17.887Z,29.70
2017-09-27T05:36:46.525Z,30.03
2017-09-27T05:39:15.193Z,31.00
2017-09-27T05:41:43.808Z,31.13
2017-09-27T05:44:12.434Z,30.80
2017-09-27T05:46:41.102Z,33.67
2017-09-27T05:49:09.585Z,31.93
2017-09-27T05:51:38.373Z,31.07
2017-09-27T05:54:07.028Z,31.57
2017-09-27T05:56:35.563Z,30.73
2017-09-27T05:59:04.197Z,32.53
2017-09-27T06:01:32.868Z,31.10
2017-09-27T06:04:01.535Z,31.30
2017-09-27T06:06:30.210Z,32.87
2017-09-27T06:08:58.869Z,31.57
2017-09-27T06:11:27.507Z,33.07
2017-09-27T06:13:56.166Z,32.33
2017-09-27T06:16:24.784Z,32.13
2017-09-27T06:18:53.399Z,31.90
2017-09-27T06:21:22.078Z,31.10
2017-09-27T06:23:50.718Z,33.03
2017-09-27T06:26:19.398Z,31.83
2017-09-27T06:28:48.025Z,32.40
2017-09-27T06:31:16.522Z,32.83
2017-09-27T06:33:45.174Z,33.10
2017-09-27T06:36:13.840Z,32.20
2017-09-27T06:38:42.449Z,33.20
2017-09-27T06:41:11.094Z,33.00
2017-09-27T06:43:39.772Z,34.03
2017-09-27T06:46:08.489Z,34.33
2017-09-27T06:48:37.802Z,32.47
2017-09-27T06:51:06.437Z,32.10
2017-09-27T06:53:35.109Z,32.70
2017-09-27T06:56:03.738Z,31.53
2017-09-27T06:58:34.895Z,32.03
2017-09-27T07:01:03.566Z,33.73
2017-09-27T07:03:32.242Z,32.60
2017-09-27T07:06:00.912Z,32.80
2017-09-27T07:08:29.607Z,32.83
2017-09-27T07:10:58.287Z,34.77
2017-09-27T07:13:26.980Z,32.20
2017-09-27T07:15:55.590Z,32.40
2017-09-27T07:18:24.204Z,33.67
2017-09-27T07:20:52.861Z,33.93
2017-09-27T07:23:21.477Z,34.50
2017-09-27T07:25:50.221Z,33.47
2017-09-27T07:28:18.863Z,32.50
2017-09-27T07:30:47.514Z,33.70
2017-09-27T07:33:16.058Z,31.80
2017-09-27T07:35:44.742Z,33.03
2017-09-27T07:38:13.358Z,32.10
2017-09-27T07:40:42.011Z,32.20
2017-09-27T07:43:10.621Z,32.90
2017-09-27T07:45:39.323Z,33.40
2017-09-27T07:48:07.941Z,35.07
2017-09-27T07:50:36.565Z,32.70
2017-09-27T07:53:05.215Z,33.20
2017-09-27T07:55:33.866Z,37.10
2017-09-27T07:58:02.489Z,36.07
2017-09-27T08:00:31.100Z,33.30
2017-09-27T08:02:59.781Z,35.50
2017-09-27T08:05:28.469Z,32.30
2017-09-27T08:07:57.129Z,32.07
2017-09-27T08:10:25.797Z,33.20
2017-09-27T08:12:54.405Z,30.93
2017-09-27T08:15:23.073Z,32.10
2017-09-27T08:17:51.695Z,32.30
2017-09-27T08:20:20.361Z,33.83
2017-09-27T08:22:48.989Z,32.80
2017-09-27T08:25:17.672Z,32.53
2017-09-27T08:27:46.277Z,32.93
2017-09-27T08:30:14.893Z,33.07
2017-09-27T08:32:43.546Z,31.20
2017-09-27T08:35:12.243Z,30.70
2017-09-27T08:37:40.898Z,31.40
2017-09-27T08:40:09.543Z,30.37
2017-09-27T08:42:38.227Z,31.77
2017-09-27T08:45:06.845Z,32.03
2017-09-27T08:47:35.509Z,31.20
2017-09-27T08:50:04.170Z,31.20
2017-09-27T08:52:32.852Z,30.40
2017-09-27T08:55:01.466Z,31.20
2017-09-27T08:57:30.139Z,31.03
2017-09-27T08:59:58.781Z,30.20
2017-09-27T09:02:27.410Z,31.00
2017-09-27T09:04:56.173Z,29.00
2017-09-27T09:07:24.639Z,29.63
2017-09-27T09:09:53.310Z,31.40
2017-09-27T09:12:21.922Z,31.50
2017-09-27T09:14:50.615Z,30.63
2017-09-27T09:17:19.230Z,30.77
2017-09-27T09:19:47.901Z,30.77
2017-09-27T09:22:16.549Z,31.67
2017-09-27T09:24:45.180Z,31.57
2017-09-27T09:27:13.842Z,29.70
2017-09-27T09:29:42.495Z,31.43
2017-09-27T09:32:11.118Z,30.67
2017-09-27T09:34:39.794Z,32.03
2017-09-27T09:37:08.481Z,30.43
2017-09-27T09:39:37.134Z,29.70
2017-09-27T09:42:05.745Z,30.93
2017-09-27T09:44:34.486Z,31.57
2017-09-27T09:47:03.145Z,29.67
2017-09-27T09:49:31.819Z,31.37
2017-09-27T09:52:00.430Z,32.40
2017-09-27T09:54:29.126Z,32.17
2017-09-27T09:56:57.761Z,31.20
2017-09-27T09:59:26.473Z,29.50
2017-09-27T10:01:55.086Z,31.57
2017-09-27T10:04:23.745Z,33.90
2017-09-27T10:06:52.420Z,29.57
2017-09-27T10:09:21.026Z,32.47
2017-09-27T10:11:49.679Z,31.67
2017-09-27T10:14:18.299Z,33.00
2017-09-27T10:16:46.974Z,29.17
2017-09-27T10:19:15.602Z,30.50
2017-09-27T10:21:44.321Z,32.50
2017-09-27T10:24:12.978Z,32.27
2017-09-27T10:26:41.589Z,32.50
2017-09-27T10:29:10.384Z,31.80
2017-09-27T10:31:38.989Z,31.83
2017-09-27T10:34:07.677Z,31.47
2017-09-27T10:36:36.303Z,31.40
2017-09-27T10:39:04.413Z,31.60
2017-09-27T10:41:33.083Z,30.10
2017-09-27T10:44:01.751Z,32.10
2017-09-27T10:46:30.408Z,30.13
2017-09-27T10:48:59.022Z,31.53
2017-09-27T10:51:27.683Z,31.30
2017-09-27T10:53:56.313Z,30.30
2017-09-27T10:56:24.970Z,29.97
2017-09-27T10:58:53.592Z,30.20
2017-09-27T11:01:22.249Z,29.23
2017-09-27T11:03:50.873Z,29.70
2017-09-27T11:06:19.539Z,29.67
2017-09-27T11:08:48.179Z,28.77
2017-09-27T11:11:16.889Z,30.90
2017-09-27T11:13:45.566Z,28.33
2017-09-27T11:16:15.613Z,29.00
2017-09-27T11:18:44.226Z,30.73
2017-09-27T11:21:12.934Z,26.70
2017-09-27T11:23:41.601Z,29.53
2017-09-27T11:26:10.265Z,28.00
2017-09-27T11:28:38.894Z,30.33
2017-09-27T11:31:07.557Z,28.30
2017-09-27T11:33:36.189Z,28.33
2017-09-27T11:36:04.821Z,27.53
2017-09-27T11:38:35.423Z,28.57
2017-09-27T11:41:04.113Z,29.60
2017-09-27T11:43:32.778Z,29.50
2017-09-27T11:46:01.381Z,27.77
2017-09-27T11:51:05.303Z,26.50
2017-09-27T11:53:33.990Z,26.73
2017-09-27T11:56:02.615Z,26.90
2017-09-27T11:58:34.790Z,26.30
2017-09-27T12:01:03.452Z,26.53
2017-09-27T12:03:31.975Z,26.93
2017-09-27T12:06:00.606Z,25.90
2017-09-27T12:08:29.226Z,26.80
2017-09-27T12:10:57.909Z,26.17
2017-09-27T12:13:26.546Z,24.03
2017-09-27T12:15:55.162Z,25.00
2017-09-27T12:18:23.825Z,21.90
2017-09-27T12:20:52.433Z,24.20
2017-09-27T12:23:21.108Z,24.53
2017-09-27T12:25:49.723Z,23.43
2017-09-27T12:28:18.389Z,22.50
2017-09-27T12:30:47.006Z,24.63
2017-09-27T12:33:15.639Z,22.80
2017-09-27T12:35:44.335Z,24.70
2017-09-27T12:38:12.958Z,24.97
2017-09-27T12:40:41.654Z,23.37
2017-09-27T12:43:10.270Z,22.97
2017-09-27T12:45:38.948Z,24.10
2017-09-27T12:48:07.574Z,23.87
2017-09-27T12:50:36.242Z,25.17
2017-09-27T12:53:04.905Z,25.23
2017-09-27T12:55:33.570Z,24.77
2017-09-27T12:58:02.194Z,25.33
2017-09-27T13:00:30.852Z,24.27
2017-09-27T13:02:59.532Z,26.73
2017-09-27T13:05:28.154Z,26.83
2017-09-27T13:07:56.827Z,25.37
2017-09-27T13:10:25.453Z,26.60
2017-09-27T13:12:54.066Z,26.93
2017-09-27T13:15:22.738Z,27.87
2017-09-27T13:17:51.399Z,27.37
2017-09-27T13:20:20.067Z,28.10
2017-09-27T13:22:48.696Z,27.27
2017-09-27T13:25:17.305Z,30.13
2017-09-27T13:27:45.970Z,31.30
2017-09-27T13:30:14.598Z,29.73
2017-09-27T13:32:43.262Z,29.70
2017-09-27T13:35:11.889Z,31.57
2017-09-27T13:37:40.513Z,30.30
2017-09-27T13:40:09.173Z,30.30
2017-09-27T13:42:37.813Z,29.67
2017-09-27T13:45:06.485Z,31.70
2017-09-27T13:47:35.103Z,27.93
2017-09-27T13:50:03.727Z,31.50
2017-09-27T13:52:32.386Z,31.13
2017-09-27T13:55:01.070Z,30.70
2017-09-27T13:57:29.707Z,29.57
2017-09-27T13:59:58.372Z,32.70
2017-09-27T14:02:27.037Z,32.53
2017-09-27T14:04:55.718Z,31.20
2017-09-27T14:07:24.334Z,31.50
2017-09-27T14:09:52.966Z,29.17
2017-09-27T14:12:21.700Z,30.67
2017-09-27T14:14:50.309Z,33.33
2017-09-27T14:17:18.968Z,32.87
2017-09-27T14:19:47.603Z,30.60
2017-09-27T14:22:16.292Z,30.40
2017-09-27T14:24:44.909Z,28.60
2017-09-27T14:27:13.522Z,30.03
2017-09-27T14:29:42.211Z,33.70
2017-09-27T14:32:10.880Z,30.27
2017-09-27T14:34:39.497Z,31.90
2017-09-27T14:37:08.135Z,31.17
2017-09-27T14:39:36.801Z,31.53
2017-09-27T14:42:05.494Z,33.63
2017-09-27T14:44:34.134Z,32.53
2017-09-27T14:47:02.789Z,32.03
2017-09-27T14:49:31.425Z,32.23
2017-09-27T14:52:13.812Z,34.50
2017-09-27T14:54:43.257Z,35.33
2017-09-27T14:57:11.942Z,35.40
2017-09-27T14:59:40.593Z,36.53
2017-09-27T15:02:09.237Z,33.27
2017-09-27T15:04:37.905Z,33.30
2017-09-27T15:07:06.567Z,33.40
2017-09-27T15:09:35.253Z,34.73
2017-09-27T15:12:03.875Z,35.37
2017-09-27T15:14:32.498Z,35.03
2017-09-27T15:17:01.145Z,32.17
2017-09-27T15:19:29.770Z,34.70
2017-09-27T15:21:58.465Z,34.07
2017-09-27T15:24:27.160Z,34.20
2017-09-27T15:26:55.770Z,32.87
2017-09-27T15:29:24.392Z,32.00
2017-09-27T15:31:53.058Z,33.97
2017-09-27T15:34:21.718Z,34.73
2017-09-27T15:36:50.382Z,33.50
2017-09-27T15:39:19.029Z,33.87
2017-09-27T15:41:47.712Z,34.67
2017-09-27T15:44:16.366Z,34.60
2017-09-27T15:46:45.022Z,33.10
2017-09-27T15:49:13.648Z,31.93
2017-09-27T15:51:42.338Z,36.37
2017-09-27T15:54:10.953Z,34.33
2017-09-27T15:56:39.631Z,34.90
2017-09-27T15:59:08.253Z,33.80
2017-09-27T16:01:39.331Z,35.17
2017-09-27T16:04:08.003Z,34.37
2017-09-27T16:06:36.634Z,34.27
2017-09-27T16:09:04.837Z,34.90
2017-09-27T16:11:33.461Z,34.40
2017-09-27T16:14:02.131Z,35.07
2017-09-27T16:16:30.783Z,35.60
2017-09-27T16:18:59.406Z,33.30
2017-09-27T16:21:28.074Z,34.47
2017-09-27T16:23:56.857Z,32.97
2017-09-27T16:26:25.521Z,32.60
2017-09-27T16:28:54.191Z,32.73
2017-09-27T16:31:22.845Z,33.73
2017-09-27T16:33:51.459Z,33.83
2017-09-27T16:36:20.164Z,32.97
2017-09-27T16:38:48.790Z,32.80
2017-09-27T16:41:17.401Z,35.17
2017-09-27T16:43:46.071Z,32.80
2017-09-27T16:46:14.698Z,32.83
2017-09-27T16:48:43.351Z,33.40
2017-09-27T16:51:11.974Z,31.83
2017-09-27T16:53:40.634Z,31.27
2017-09-27T16:56:09.302Z,32.10
2017-09-27T16:58:37.970Z,32.90
2017-09-27T17:01:06.606Z,31.70
2017-09-27T17:03:35.282Z,31.30
2017-09-27T17:06:03.942Z,31.20
2017-09-27T17:08:35.006Z,31.83
2017-09-27T17:11:03.664Z,32.20
2017-09-27T17:13:32.334Z,31.67
2017-09-27T17:16:00.971Z,31.67
2017-09-27T17:18:29.634Z,30.60
2017-09-27T17:20:58.237Z,32.93
2017-09-27T17:23:26.893Z,29.43
2017-09-27T17:25:59.316Z,30.20
2017-09-27T17:28:28.078Z,29.80
2017-09-27T17:31:06.781Z,28.03
2017-09-27T17:33:48.204Z,30.77
2017-09-27T17:36:27.016Z,29.20
2017-09-27T17:39:00.739Z,30.10
2017-09-27T17:41:43.239Z,29.33
2017-09-27T17:44:19.288Z,29.10
2017-09-27T17:47:02.455Z,28.10
2017-09-27T17:49:39.369Z,29.50
2017-09-27T17:52:20.993Z,28.70
2017-09-27T17:55:03.360Z,28.67
2017-09-27T17:57:41.673Z,28.40
2017-09-27T18:00:22.311Z,28.53
2017-09-27T18:03:01.084Z,26.00
2017-09-27T18:09:13.800Z,28.30
2017-09-27T18:12:00.562Z,28.30
2017-09-27T18:14:46.647Z,28.40
2017-09-27T18:17:32.015Z,27.67
2017-09-27T18:20:16.372Z,29.20
2017-09-27T18:22:58.177Z,30.73
2017-09-27T18:25:40.031Z,27.00
2017-09-27T18:28:21.828Z,32.60
2017-09-27T18:31:04.288Z,35.87
2017-09-27T18:33:45.620Z,33.20
2017-09-27T18:36:27.019Z,33.70
2017-09-27T18:39:07.898Z,30.80
2017-09-27T18:41:45.711Z,30.33
2017-09-27T18:44:27.714Z,28.60
2017-09-27T18:47:06.326Z,30.23
2017-09-27T18:49:49.142Z,27.67
2017-09-27T18:52:28.980Z,28.00
2017-09-27T18:55:07.155Z,28.23
2017-09-27T18:57:49.477Z,26.47
2017-09-27T19:00:36.740Z,28.07
2017-09-27T19:03:07.528Z,25.50
2017-09-27T19:05:51.504Z,27.37
2017-09-27T19:08:33.051Z,27.60
2017-09-27T19:11:14.656Z,29.33
2017-09-27T19:13:53.464Z,26.80
2017-09-27T19:16:24.429Z,25.17
2017-09-27T19:18:58.851Z,26.93
2017-09-27T19:21:29.958Z,26.37
2017-09-27T19:24:00.309Z,27.07
2017-09-27T19:26:30.840Z,26.00
2017-09-27T19:29:03.737Z,25.87
2017-09-27T19:31:34.752Z,25.97
2017-09-27T19:34:07.984Z,25.67
2017-09-27T19:36:38.586Z,24.17
2017-09-27T19:39:09.972Z,24.70
2017-09-27T19:41:41.637Z,24.23
2017-09-27T19:44:18.038Z,22.43
2017-09-27T19:46:49.052Z,23.40
2017-09-27T19:49:20.130Z,24.67
2017-09-27T19:51:54.884Z,24.00
2017-09-27T19:54:26.192Z,25.13
2017-09-27T19:56:55.813Z,23.10
2017-09-27T19:59:27.479Z,23.93
2017-09-27T20:01:58.296Z,21.63
2017-09-27T20:04:29.058Z,23.00
2017-09-27T20:06:57.809Z,21.73
2017-09-27T20:09:31.358Z,20.50
2017-09-27T20:12:01.253Z,21.30
2017-09-27T20:14:30.486Z,22.30
2017-09-27T20:17:01.061Z,20.90
2017-09-27T20:19:31.615Z,20.43
2017-09-27T20:22:00.940Z,20.63
2017-09-27T20:24:31.387Z,19.33
2017-09-27T20:27:06.728Z,21.83
2017-09-27T20:29:39.088Z,20.43
2017-09-27T20:32:11.051Z,19.57
2017-09-27T20:34:40.544Z,19.73
2017-09-27T20:37:09.161Z,21.90
2017-09-27T20:39:37.809Z,20.43
2017-09-27T20:42:06.443Z,20.50
2017-09-27T20:44:35.112Z,18.73
2017-09-27T20:47:03.738Z,19.40
2017-09-27T20:49:32.366Z,19.30
2017-09-27T20:52:01.066Z,18.63
2017-09-27T20:54:33.579Z,19.03
2017-09-27T20:57:06.037Z,18.47
2017-09-27T20:59:38.642Z,18.13
2017-09-27T21:02:16.397Z,17.60
2017-09-27T21:04:48.302Z,19.40
2017-09-27T21:07:20.147Z,18.47
2017-09-27T21:09:51.201Z,17.87
2017-09-27T21:12:22.357Z,18.80
2017-09-27T21:14:54.060Z,18.33
2017-09-27T21:17:25.681Z,18.50
2017-09-27T21:19:56.355Z,19.83
2017-09-27T21:22:25.086Z,17.63
2017-09-27T21:25:07.891Z,16.73
2017-09-27T21:27:48.518Z,17.23
2017-09-27T21:30:24.899Z,16.50
2017-09-27T21:33:05.785Z,17.90
2017-09-27T21:35:37.729Z,16.70
2017-09-27T21:38:09.503Z,17.00
2017-09-27T21:40:41.695Z,16.90
2017-09-27T21:43:13.860Z,16.97
2017-09-27T21:45:45.334Z,18.27
2017-09-27T21:48:14.009Z,16.70
2017-09-27T21:50:42.616Z,17.53
2017-09-27T21:53:11.297Z,16.57
2017-09-27T21:55:39.938Z,17.30
2017-09-27T21:58:08.574Z,16.73
2017-09-27T22:00:37.241Z,16.00
2017-09-27T22:03:05.907Z,16.73
2017-09-27T22:05:34.085Z,15.47
2017-09-27T22:08:02.702Z,17.00
2017-09-27T22:10:31.358Z,16.37
2017-09-27T22:13:00.011Z,15.47
2017-09-27T22:15:28.635Z,16.00
2017-09-27T22:17:57.268Z,15.63
2017-09-27T22:20:26.010Z,16.43
2017-09-27T22:22:54.649Z,16.40
2017-09-27T22:25:23.337Z,16.50
2017-09-27T22:27:51.986Z,15.50
2017-09-27T22:30:20.617Z,17.00
2017-09-27T22:32:49.329Z,16.70
2017-09-27T22:35:17.983Z,16.57
2017-09-27T22:37:46.645Z,15.53
2017-09-27T22:40:15.249Z,15.43
2017-09-27T22:42:43.910Z,15.90
2017-09-27T22:45:12.575Z,17.10
2017-09-27T22:47:41.186Z,16.40
2017-09-27T22:50:10.250Z,16.00
2017-09-27T22:52:38.927Z,15.43
2017-09-27T22:55:07.604Z,15.50
2017-09-27T22:57:36.223Z,14.90
2017-09-27T23:00:04.924Z,14.33
2017-09-27T23:02:33.539Z,15.87
2017-09-27T23:05:02.154Z,15.73
2017-09-27T23:07:30.808Z,16.13
2017-09-27T23:09:59.433Z,15.10
2017-09-27T23:12:36.100Z,14.47
2017-09-27T23:15:12.423Z,16.00
2017-09-27T23:17:49.074Z,14.23
2017-09-27T23:20:23.008Z,15.30
2017-09-27T23:22:58.274Z,14.00
2017-09-27T23:25:32.352Z,14.77
2017-09-27T23:28:09.114Z,14.87
2017-09-27T23:30:46.796Z,15.90
2017-09-27T23:33:27.785Z,14.10
2017-09-27T23:36:07.305Z,15.73
2017-09-27T23:38:47.537Z,14.30
2017-09-27T23:41:25.830Z,15.43
2017-09-27T23:44:01.058Z,14.33
2017-09-27T23:46:36.048Z,15.40
2017-09-27T23:49:07.255Z,15.30
2017-09-27T23:51:35.994Z,14.50
2017-09-27T23:54:04.610Z,13.90
2017-09-27T23:56:33.270Z,14.90
2017-09-27T23:59:02.032Z,15.53
